LFMTLFTW

Guest
Details From LFMT - Montpellier/Mediterranee
To LFTW - Garons Navy
Flight Number -
Tags generated
Created
Modified
Stats Distance 23 nm / 42 km
Max Altitude 100 ft / 30 m
Waypoints 3
Social Downloads 0
Likes 0
Share

Download

Looking for another format? Having issues loading an existing format? Contact us
Advertisement - Login to hide

Notes

Basic altitude profile: - Ascent Rate: 2500ft/min - Ascent Speed: 250kts - Cruise Altitude: 35000ft - Cruise Speed: 420kts - Descent Rate: 1500ft/min - Descent Speed: 250kts Options: - Use NATs: yes - Use PACOTS: yes - Use low airways: yes - Use high airways: yes

Route

LFMT FJR LFTW

ID Type Via Altitude (ft/m) Position (lat/lon) Dist (leg/tot) Name
O LFMT APT - 0 / 0 43.57626 / 3.96326 - / 0 nm Montpellier/Mediterranee
FJR VOR - 100 / 30 43.57836 / 3.97472 0 / 0 nm MONPELLIER MEDITERRANEE VOR-DM
O LFTW APT - 0 / 0 43.75744 / 4.41639 21 / 22 nm Garons Navy

Altitude Profile

Advertisement - Login to hide

LFMT

Details ICAO LFMT (MPL)
Name Montpellier/Mediterranee
Region France
Timezone Europe/Paris (UTC+2.0)
Stats Elevation 17 ft / 5 m (AMSL)
Location 43.576200° 3.963250°
Runways 2
Magnetic Variation 1.578° E

METAR

LFMT 202300Z AUTO 12019KT 9999 BKN029 OVC036 17/14 Q1017 TEMPO 12015G25KT

Decode

TAF

TAF LFMT 202000Z 2021/2121 12015KT 9999 BKN030 TEMPO 2021/2106 12015G25KT CAVOK BECMG 2106/2108 12020G30KT

Decode

Departure Runways

ID Width Length Bearing (true/mag) Surface Threshold Overrun Markings Lighting
12L 164 ft / 50 m 8,539 ft / 2,603 m 124.83° / 123.25° ASPHALT 0 ft / 0 m 0 ft / 0 m PREC-APP CENTERLINE EDGE THRESHOLD
12R 98 ft / 30 m 3,612 ft / 1,101 m 124.80° / 123.22° ASPHALT 328 ft / 100 m 0 ft / 0 m VISUAL
30L 98 ft / 30 m 3,612 ft / 1,101 m 304.81° / 303.23° ASPHALT 0 ft / 0 m 0 ft / 0 m VISUAL
30R 164 ft / 50 m 8,539 ft / 2,603 m 304.85° / 303.27° ASPHALT 0 ft / 0 m 0 ft / 0 m PREC-APP CENTERLINE EDGE THRESHOLD ALSF-I

LFTW

Details ICAO LFTW (FNI)
Name Garons Navy
Region France
Timezone Europe/Paris (UTC+2.0)
Stats Elevation 308 ft / 94 m (AMSL)
Location 43.757400° 4.416390°
Runways 1
Magnetic Variation 1.687° E

METAR

LFTW 202300Z AUTO 12011KT 9999 SCT032 SCT040 OVC046 15/09 Q1018

Decode

TAF

TAF LFTW 201931Z 2019/2115 CNL

Decode

Destination Runways

ID Width Length Bearing (true/mag) Surface Threshold Overrun Markings Lighting
18 148 ft / 45 m 8,657 ft / 2,639 m 177.10° / 175.41° CONCRETE 331 ft / 101 m 0 ft / 0 m PREC-APP EDGE THRESHOLD ALSF-I REIL-OMNI
36 148 ft / 45 m 8,657 ft / 2,639 m 357.10° / 355.41° CONCRETE 331 ft / 101 m 0 ft / 0 m PREC-APP EDGE THRESHOLD REIL-OMNI

Approach Navaids

Runway Type Ident Frequency Range Bearing (true/mag) Slope Elevation
18 DME NG 109.55 MHz 18 nm / 33 km - - 340 ft / 104 m (AMSL)
36 LOC-ILS NG 109.09 MHz 18 nm / 33 km 356.75° / 355.06 ° - 308 ft / 94 m (AMSL)
36 GS NG 109.09 MHz 10 nm / 19 km 357.19° / 355.51 ° 3.00° 308 ft / 94 m (AMSL)

Popular Alternatives